Holly, Washington
Current Conditions -  °F | °C
As of 9:15 AM on Thursday 27 Nov 2014 (Local Time) from KPWT Reporting Station
Overcast Overcast  
Wind Chill: 52°   Ceiling: 500
Heat Index: 52°   Visibility: 10mi
Dew Point: 52°   Wind: 18mph
Humidity: 100%   Direction: 190°S
Pressure: 29.85"   Gusts: 25mph
Location:  47.5691°N, 122.818°W
Report Text: KPWT 271715Z AUTO 19016G22KT 10SM BKN005 OVC012 11/11 A2985 RMK AO1
Loading
Personal Weather Stations






























Interactive Weather Map New forecast layout! Learn more

10-Day Weather Forecast

Advertisements
Track Severe Weather on mobile